Time;durP1;ratioP1;P1;durP2;ratioP2;P2;SDS_P1;SDS_P2;PMS_P1;PMS_P2;Temp;Humidity;BMP_temperature;BMP_pressure;BME280_temperature;BME280_humidity;BME280_pressure;Samples;Min_cycle;Max_cycle;Signal;HPM_P1;HPM_P2
2022/03/20 00:00:38;;;;;;;2.53;1.23;;;6.40;97.80;;;;;;4974218;28;20249;-77
2022/03/20 00:03:07;;;;;;;1.40;0.70;;;6.40;97.90;;;;;;4974036;28;20240;-77
2022/03/20 00:05:38;;;;;;;2.87;0.90;;;6.50;98.00;;;;;;4974672;28;20215;-77
2022/03/20 00:08:08;;;;;;;3.33;1.20;;;6.40;98.00;;;;;;4974296;28;20273;-77
2022/03/20 00:10:35;;;;;;;1.77;1.00;;;6.40;98.20;;;;;;4974597;28;20215;-77
2022/03/20 00:13:03;;;;;;;3.77;1.00;;;6.30;98.50;;;;;;4974388;28;20242;-77
2022/03/20 00:15:31;;;;;;;2.43;0.93;;;6.30;98.60;;;;;;4974293;28;20207;-76
2022/03/20 00:17:58;;;;;;;2.57;0.70;;;6.30;98.70;;;;;;4974014;28;20227;-77
2022/03/20 00:20:25;;;;;;;2.87;1.30;;;6.20;98.90;;;;;;4974509;28;20218;-76
2022/03/20 00:22:52;;;;;;;4.10;1.10;;;6.20;99.20;;;;;;4974507;28;20298;-77
2022/03/20 00:25:19;;;;;;;2.40;1.27;;;6.10;99.30;;;;;;4970956;28;20275;-74
2022/03/20 00:27:46;;;;;;;3.77;1.43;;;6.10;99.30;;;;;;4954375;28;20728;-76
2022/03/20 00:30:13;;;;;;;4.30;1.30;;;6.20;99.40;;;;;;4955127;28;20208;-77
2022/03/20 00:32:42;;;;;;;2.30;1.33;;;6.10;99.70;;;;;;4954654;28;20236;-76
2022/03/20 00:35:09;;;;;;;3.17;1.57;;;6.00;99.90;;;;;;4954955;28;20207;-77
2022/03/20 00:37:36;;;;;;;5.27;1.90;;;5.90;99.90;;;;;;4954908;28;20302;-76
2022/03/20 00:40:03;;;;;;;4.63;1.60;;;5.80;99.90;;;;;;4954677;28;20208;-77
2022/03/20 00:42:30;;;;;;;3.30;1.50;;;5.80;99.90;;;;;;4954978;28;20208;-76
2022/03/20 00:44:56;;;;;;;3.83;1.27;;;5.90;99.90;;;;;;4954681;28;20299;-78
2022/03/20 00:47:23;;;;;;;8.60;1.87;;;6.00;99.90;;;;;;4954351;28;20738;-76
2022/03/20 00:49:51;;;;;;;2.87;1.63;;;6.00;99.90;;;;;;4954552;28;20222;-77
2022/03/20 00:52:18;;;;;;;5.33;2.10;;;6.00;99.90;;;;;;4954263;28;20216;-75
2022/03/20 00:54:45;;;;;;;5.97;2.43;;;6.10;99.90;;;;;;4958599;28;20230;-77
2022/03/20 00:57:12;;;;;;;6.23;2.37;;;6.00;99.90;;;;;;4973701;28;20564;-77
2022/03/20 00:59:39;;;;;;;3.90;2.10;;;6.00;99.90;;;;;;4974267;28;20207;-74
2022/03/20 01:02:07;;;;;;;4.80;1.90;;;5.80;99.90;;;;;;4973926;28;20242;-77
2022/03/20 01:04:34;;;;;;;5.97;2.53;;;5.80;99.90;;;;;;4974112;28;20207;-77
2022/03/20 01:07:03;;;;;;;6.53;2.80;;;5.80;99.90;;;;;;4973835;28;20253;-76
2022/03/20 01:09:30;;;;;;;4.73;2.70;;;5.70;99.90;;;;;;4973644;28;20214;-76
2022/03/20 01:11:57;;;;;;;5.33;2.43;;;5.70;99.90;;;;;;4973576;28;20548;-77
2022/03/20 01:14:25;;;;;;;4.90;2.77;;;5.70;99.90;;;;;;4973630;28;20663;-76
2022/03/20 01:16:52;;;;;;;6.13;2.80;;;5.70;99.90;;;;;;4977770;28;20230;-77
2022/03/20 01:19:19;;;;;;;4.07;2.30;;;5.80;99.90;;;;;;4977826;28;20206;-77
2022/03/20 01:21:46;;;;;;;3.80;2.10;;;5.70;99.90;;;;;;4977725;28;20218;-75
2022/03/20 01:24:14;;;;;;;4.87;2.77;;;5.80;99.90;;;;;;4977491;28;20207;-76
2022/03/20 01:26:41;;;;;;;5.73;2.07;;;6.00;99.90;;;;;;4977443;28;20310;-77
2022/03/20 01:29:08;;;;;;;6.03;2.57;;;6.00;99.90;;;;;;4967379;28;20210;-77
2022/03/20 01:31:36;;;;;;;6.70;1.97;;;5.90;99.90;;;;;;4958026;28;20212;-77
2022/03/20 01:34:03;;;;;;;4.93;2.27;;;5.80;99.90;;;;;;4958264;28;20235;-78
2022/03/20 01:36:30;;;;;;;4.33;2.07;;;5.90;99.90;;;;;;4958002;28;20602;-77
2022/03/20 01:38:58;;;;;;;4.60;2.50;;;5.90;99.90;;;;;;4958184;29;20212;-76
2022/03/20 01:41:26;;;;;;;7.57;2.57;;;5.80;99.90;;;;;;4958405;28;20208;-74
2022/03/20 01:43:55;;;;;;;3.83;2.40;;;5.70;99.90;;;;;;4958207;28;20252;-76
2022/03/20 01:46:23;;;;;;;4.80;2.30;;;5.70;99.90;;;;;;4958143;28;20200;-74
2022/03/20 01:48:50;;;;;;;3.93;2.07;;;5.70;99.90;;;;;;4957719;28;20216;-77
2022/03/20 01:51:18;;;;;;;4.50;2.17;;;5.50;99.90;;;;;;4957879;28;20218;-76
2022/03/20 01:54:05;;;;;;;5.70;2.53;;;5.60;99.90;;;;;;4962468;28;20238;-77
2022/03/20 01:56:34;;;;;;;5.07;2.07;;;5.60;99.90;;;;;;4972667;28;20223;-77
2022/03/20 01:59:03;;;;;;;5.47;2.20;;;5.50;99.90;;;;;;4976847;28;20208;-77
2022/03/20 02:01:29;;;;;;;4.77;2.13;;;5.60;99.90;;;;;;4976573;28;20211;-77
2022/03/20 02:03:57;;;;;;;3.83;2.23;;;5.70;99.90;;;;;;4976428;28;20208;-77
2022/03/20 02:06:26;;;;;;;5.90;2.40;;;5.50;99.90;;;;;;4977068;28;20207;-76
2022/03/20 02:08:54;;;;;;;8.03;2.63;;;5.40;99.90;;;;;;4976571;28;20247;-76
2022/03/20 02:11:23;;;;;;;7.77;2.50;;;5.40;99.90;;;;;;4976453;28;20215;-77
2022/03/20 02:13:51;;;;;;;6.63;2.37;;;5.20;99.90;;;;;;4976548;28;20231;-77
2022/03/20 02:16:18;;;;;;;5.70;2.60;;;5.30;99.90;;;;;;4976635;28;20209;-76
2022/03/20 02:18:46;;;;;;;5.70;2.60;;;5.50;99.90;;;;;;4976748;28;20218;-78
2022/03/20 02:21:15;;;;;;;7.30;2.50;;;5.60;99.90;;;;;;4976597;28;20211;-78
2022/03/20 02:23:43;;;;;;;7.17;2.70;;;5.50;99.90;;;;;;4976498;28;20215;-75
2022/03/20 02:26:10;;;;;;;6.37;2.37;;;5.70;99.90;;;;;;4975989;28;20234;-77
2022/03/20 02:28:37;;;;;;;5.63;2.23;;;5.50;99.90;;;;;;4976551;28;20266;-76
2022/03/20 02:31:05;;;;;;;6.00;2.37;;;5.50;99.90;;;;;;4963655;28;20230;-74
2022/03/20 02:33:32;;;;;;;4.87;2.17;;;5.60;99.90;;;;;;4957173;28;20240;-77
2022/03/20 02:35:59;;;;;;;7.40;2.50;;;5.70;99.90;;;;;;4957237;28;20218;-78
2022/03/20 02:38:27;;;;;;;6.10;2.80;;;5.60;99.90;;;;;;4956780;28;20224;-78
2022/03/20 02:40:56;;;;;;;5.23;2.30;;;5.70;99.90;;;;;;4956733;29;20226;-77
2022/03/20 02:43:30;;;;;;;4.67;2.33;;;5.70;99.90;;;;;;4956808;28;20215;-78
2022/03/20 02:46:00;;;;;;;4.50;2.57;;;5.50;99.90;;;;;;4956970;28;20691;-76
2022/03/20 02:48:27;;;;;;;4.50;2.43;;;5.40;99.90;;;;;;4957029;28;20239;-75
2022/03/20 02:50:54;;;;;;;7.33;2.90;;;5.30;99.90;;;;;;4956864;28;20207;-76
2022/03/20 02:53:21;;;;;;;5.07;2.50;;;5.40;99.90;;;;;;4963759;28;20211;-75
2022/03/20 02:55:49;;;;;;;4.77;2.57;;;5.40;99.90;;;;;;4964449;28;20215;-76
2022/03/20 02:58:18;;;;;;;4.30;2.30;;;5.40;99.90;;;;;;4956066;28;20228;-73
2022/03/20 03:00:46;;;;;;;5.93;2.90;;;5.20;99.90;;;;;;4956652;28;20307;-75
2022/03/20 03:03:13;;;;;;;5.77;3.07;;;5.20;99.90;;;;;;4956252;28;20311;-75
2022/03/20 03:05:41;;;;;;;5.33;2.60;;;5.20;99.90;;;;;;4956294;28;20215;-77
2022/03/20 03:10:59;;;;;;;8.60;3.57;;;5.20;99.90;;;;;;4956298;29;20682;-76
2022/03/20 03:13:28;;;;;;;9.03;3.00;;;5.10;99.90;;;;;;4956143;28;20208;-76
2022/03/20 03:15:56;;;;;;;5.77;3.00;;;5.20;99.90;;;;;;4956312;28;20204;-72
2022/03/20 03:18:23;;;;;;;9.57;3.03;;;5.00;99.90;;;;;;4955980;28;20231;-76
2022/03/20 03:20:51;;;;;;;7.97;2.97;;;4.90;99.90;;;;;;4956225;28;20212;-76
2022/03/20 03:23:20;;;;;;;8.70;3.03;;;4.90;99.90;;;;;;4955977;28;20219;-76
2022/03/20 03:25:47;;;;;;;6.70;3.43;;;4.90;99.90;;;;;;4955788;28;20208;-76
2022/03/20 03:28:16;;;;;;;9.63;3.13;;;5.00;99.90;;;;;;4955977;29;20235;-77
2022/03/20 03:30:44;;;;;;;10.37;3.07;;;5.00;99.90;;;;;;4956139;28;20204;-76
2022/03/20 03:33:11;;;;;;;8.87;3.23;;;5.20;99.90;;;;;;4955551;28;20231;-74
2022/03/20 03:35:46;;;;;;;7.53;3.10;;;5.30;99.90;;;;;;4955379;28;20719;-77
2022/03/20 03:38:14;;;;;;;7.97;3.07;;;5.30;99.90;;;;;;4954951;28;20294;-73
2022/03/20 03:40:43;;;;;;;11.10;3.30;;;5.20;99.90;;;;;;4955933;28;20238;-77
2022/03/20 03:43:10;;;;;;;6.40;3.27;;;5.20;99.90;;;;;;4955938;29;20678;-76
2022/03/20 03:45:39;;;;;;;6.17;2.83;;;5.20;99.90;;;;;;4955790;28;20215;-77
2022/03/20 03:48:06;;;;;;;6.47;3.30;;;5.30;99.90;;;;;;4955480;28;20232;-73
2022/03/20 03:50:34;;;;;;;7.23;3.13;;;5.50;99.90;;;;;;4955756;28;20314;-76
2022/03/20 03:53:00;;;;;;;5.93;3.37;;;5.50;99.90;;;;;;4955587;28;20216;-75
2022/03/20 03:55:27;;;;;;;5.97;3.17;;;5.30;99.90;;;;;;4959752;28;20581;-76
2022/03/20 03:57:54;;;;;;;6.13;2.87;;;5.40;99.90;;;;;;4960998;28;20748;-75
2022/03/20 04:00:22;;;;;;;5.53;3.10;;;5.50;99.90;;;;;;4955352;28;20204;-76
2022/03/20 04:02:50;;;;;;;6.50;2.90;;;5.40;99.90;;;;;;4955045;28;20219;-76
2022/03/20 04:05:17;;;;;;;7.53;3.30;;;5.10;99.90;;;;;;4955259;28;20204;-77
2022/03/20 04:07:45;;;;;;;7.07;3.40;;;4.80;99.90;;;;;;4955262;28;20294;-76
2022/03/20 04:10:13;;;;;;;5.93;2.53;;;4.80;99.90;;;;;;4955355;28;20253;-73
2022/03/20 04:12:41;;;;;;;6.70;3.33;;;4.70;99.90;;;;;;4955186;28;20223;-76
2022/03/20 04:15:08;;;;;;;5.07;3.10;;;4.60;99.90;;;;;;4954989;28;20244;-76
2022/03/20 04:17:35;;;;;;;5.83;2.87;;;4.60;99.90;;;;;;4955380;28;20228;-76
2022/03/20 04:20:06;;;;;;;6.33;3.10;;;4.70;99.90;;;;;;4955472;28;20204;-76
2022/03/20 04:22:35;;;;;;;7.27;2.60;;;4.80;99.90;;;;;;4957200;28;20215;-76
2022/03/20 04:25:01;;;;;;;4.43;2.90;;;4.90;99.90;;;;;;4974300;28;20551;-77
2022/03/20 04:27:30;;;;;;;4.60;2.87;;;4.60;99.90;;;;;;4973968;28;20262;-74
2022/03/20 04:29:57;;;;;;;7.43;2.97;;;4.60;99.90;;;;;;4955111;28;20722;-76
2022/03/20 04:32:24;;;;;;;6.33;3.00;;;4.70;99.90;;;;;;4954918;28;20563;-77
2022/03/20 04:34:52;;;;;;;9.67;3.37;;;4.60;99.90;;;;;;4955191;28;20236;-76
2022/03/20 04:37:22;;;;;;;7.13;3.20;;;4.50;99.90;;;;;;4954975;28;20232;-77
2022/03/20 04:39:49;;;;;;;6.50;3.57;;;4.50;99.90;;;;;;4954994;28;20282;-77
2022/03/20 04:42:16;;;;;;;8.20;3.67;;;4.50;99.90;;;;;;4954593;28;20203;-77
2022/03/20 04:44:43;;;;;;;7.13;3.47;;;4.40;99.90;;;;;;4955081;28;20208;-76
2022/03/20 04:58:29;;;;;;;9.10;4.43;;;4.40;99.90;;;;;;4954777;28;20659;-77
2022/03/20 04:58:30;;;;;;;9.53;4.70;;;4.40;99.90;;;;;;4954740;29;20343;-78
2022/03/20 05:00:57;;;;;;;11.67;5.40;;;4.40;99.90;;;;;;4954257;29;20212;-77
2022/03/20 05:03:24;;;;;;;9.97;5.03;;;4.40;99.90;;;;;;4954424;28;20667;-75
2022/03/20 05:05:51;;;;;;;11.80;5.07;;;4.20;99.90;;;;;;4954787;28;20211;-77
2022/03/20 05:08:19;;;;;;;12.70;5.97;;;4.10;99.90;;;;;;4954710;28;20235;-77
2022/03/20 05:13:31;;;;;;;10.90;6.07;;;4.40;99.90;;;;;;4954645;29;20215;-77
2022/03/20 05:15:57;;;;;;;19.30;6.80;;;4.50;99.90;;;;;;4954741;28;20239;-77
2022/03/20 05:18:24;;;;;;;12.13;6.37;;;4.60;99.90;;;;;;4954382;28;20228;-77
2022/03/20 05:20:52;;;;;;;17.03;7.13;;;4.60;99.90;;;;;;4954433;28;20211;-76
2022/03/20 05:23:21;;;;;;;16.07;6.73;;;4.70;99.90;;;;;;4954511;28;20239;-76
2022/03/20 05:25:48;;;;;;;13.43;6.43;;;4.70;99.90;;;;;;4954071;28;20212;-77
2022/03/20 05:28:15;;;;;;;13.10;6.73;;;4.70;99.90;;;;;;4962383;28;20223;-74
2022/03/20 05:30:42;;;;;;;15.33;6.90;;;4.60;99.90;;;;;;4954387;28;20792;-73
2022/03/20 05:33:11;;;;;;;13.93;6.57;;;4.60;99.90;;;;;;4954430;28;20674;-77
2022/03/20 05:35:40;;;;;;;13.30;5.93;;;4.80;99.90;;;;;;4953968;28;20240;-76
2022/03/20 05:38:08;;;;;;;13.17;6.70;;;5.10;99.90;;;;;;4953956;28;20640;-76
2022/03/20 05:40:38;;;;;;;16.07;6.70;;;5.30;99.90;;;;;;4953915;28;20255;-77
2022/03/20 05:43:06;;;;;;;15.90;7.13;;;5.50;99.90;;;;;;4954358;28;20231;-77
2022/03/20 05:45:34;;;;;;;10.93;5.83;;;5.50;99.90;;;;;;4954185;28;20663;-77
2022/03/20 05:48:01;;;;;;;13.10;6.60;;;5.30;99.90;;;;;;4954363;28;20235;-75
2022/03/20 05:50:28;;;;;;;14.60;5.97;;;5.30;99.90;;;;;;4954404;28;20214;-76
2022/03/20 05:52:54;;;;;;;12.50;5.27;;;5.30;99.90;;;;;;4953861;28;20216;-76
2022/03/20 05:58:01;;;;;;;12.13;6.50;;;5.00;99.90;;;;;;4954102;28;20239;-77
2022/03/20 05:58:13;;;;;;;14.70;6.83;;;4.90;99.90;;;;;;4954034;29;20232;-77
2022/03/20 06:00:43;;;;;;;10.67;5.43;;;5.00;99.90;;;;;;4954184;28;20304;-77
2022/03/20 06:03:11;;;;;;;15.43;5.90;;;5.10;99.90;;;;;;4960711;28;20235;-78
2022/03/20 06:05:38;;;;;;;15.10;6.10;;;5.30;99.90;;;;;;4973561;28;20574;-75
2022/03/20 06:08:06;;;;;;;18.87;5.73;;;5.50;99.90;;;;;;4976205;28;20226;-77
2022/03/20 06:10:33;;;;;;;10.50;5.10;;;5.60;99.90;;;;;;4976649;28;20219;-77
2022/03/20 06:13:01;;;;;;;9.43;5.27;;;5.60;99.90;;;;;;4976548;28;20215;-78
2022/03/20 06:15:29;;;;;;;12.03;5.57;;;5.50;99.90;;;;;;4976192;28;20309;-77
2022/03/20 06:17:57;;;;;;;11.30;5.57;;;5.40;99.90;;;;;;4976229;28;20227;-78
2022/03/20 06:20:25;;;;;;;10.90;4.83;;;5.50;99.90;;;;;;4976608;28;20261;-77
2022/03/20 06:22:52;;;;;;;12.87;5.20;;;5.50;99.90;;;;;;4962313;28;20255;-78
2022/03/20 06:25:20;;;;;;;11.33;6.23;;;5.60;99.90;;;;;;4957302;28;20291;-78
2022/03/20 06:27:48;;;;;;;13.20;5.50;;;5.70;99.90;;;;;;4957744;28;20772;-76
2022/03/20 06:30:16;;;;;;;12.03;5.77;;;5.80;99.90;;;;;;4971105;28;20199;-77
2022/03/20 06:32:45;;;;;;;11.17;5.63;;;5.70;99.90;;;;;;4965160;28;20211;-77
2022/03/20 06:35:12;;;;;;;11.40;5.90;;;5.70;99.90;;;;;;4968667;28;20227;-77
2022/03/20 06:37:40;;;;;;;11.93;5.67;;;5.70;99.90;;;;;;4971684;28;20219;-76
2022/03/20 06:40:08;;;;;;;9.97;5.43;;;5.80;99.90;;;;;;4960113;28;20208;-77
2022/03/20 06:42:36;;;;;;;11.80;5.53;;;5.90;99.90;;;;;;4959744;28;20203;-75
2022/03/20 06:45:04;;;;;;;10.80;5.73;;;5.80;99.90;;;;;;4976013;28;20207;-76
2022/03/20 06:47:32;;;;;;;11.07;5.53;;;5.60;99.90;;;;;;4975597;28;20714;-78
2022/03/20 06:50:00;;;;;;;11.17;6.00;;;5.50;99.90;;;;;;4976026;28;20207;-76
2022/03/20 06:52:29;;;;;;;13.57;6.83;;;5.50;99.90;;;;;;4975774;28;20219;-76
2022/03/20 06:54:57;;;;;;;12.80;6.33;;;5.20;99.90;;;;;;4971470;28;20232;-74
2022/03/20 06:57:24;;;;;;;14.83;6.53;;;4.50;99.90;;;;;;4956857;28;20228;-75
2022/03/20 06:59:51;;;;;;;13.50;6.33;;;4.10;99.90;;;;;;4956736;28;20219;-75
2022/03/20 07:02:19;;;;;;;12.70;6.80;;;3.70;99.90;;;;;;4956772;28;20236;-72
2022/03/20 07:04:47;;;;;;;18.83;8.07;;;3.60;99.90;;;;;;4956199;28;20311;-73
2022/03/20 07:07:16;;;;;;;16.97;8.20;;;3.80;99.90;;;;;;4956475;28;20239;-73
2022/03/20 07:09:43;;;;;;;15.33;7.30;;;3.80;99.90;;;;;;4956436;28;20208;-72
2022/03/20 07:12:11;;;;;;;16.07;7.47;;;3.80;99.90;;;;;;4955980;28;20204;-73
2022/03/20 07:14:38;;;;;;;17.03;8.53;;;3.50;99.90;;;;;;4968925;28;20666;-73
2022/03/20 07:17:07;;;;;;;14.40;7.40;;;3.40;99.90;;;;;;4975553;28;20286;-73
2022/03/20 07:19:37;;;;;;;13.90;7.33;;;3.40;99.90;;;;;;4975474;28;20215;-73
2022/03/20 07:22:05;;;;;;;17.97;8.40;;;3.50;99.90;;;;;;4975250;28;20207;-73
2022/03/20 07:24:35;;;;;;;16.07;8.43;;;3.60;99.90;;;;;;4975680;28;20203;-72
2022/03/20 07:29:49;;;;;;;17.10;7.63;;;3.80;99.90;;;;;;4972576;28;20211;-73
2022/03/20 07:32:16;;;;;;;17.80;8.90;;;3.70;99.90;;;;;;4974063;28;20227;-73
2022/03/20 07:34:45;;;;;;;17.90;8.20;;;3.80;99.90;;;;;;4973749;28;20207;-73
2022/03/20 07:37:15;;;;;;;15.03;8.03;;;3.80;99.90;;;;;;4974415;28;20230;-73
2022/03/20 07:39:45;;;;;;;16.93;9.57;;;3.90;99.90;;;;;;4975068;28;20211;-73
2022/03/20 07:42:11;;;;;;;21.33;9.43;;;3.90;99.90;;;;;;4974878;28;20210;-73
2022/03/20 07:44:38;;;;;;;22.20;11.17;;;4.10;99.90;;;;;;4974682;28;20310;-73
2022/03/20 07:47:08;;;;;;;23.43;10.03;;;4.10;99.90;;;;;;4974654;28;20223;-72
2022/03/20 07:49:36;;;;;;;17.40;9.40;;;3.80;99.90;;;;;;4974344;28;20207;-73
2022/03/20 07:52:03;;;;;;;17.67;9.97;;;3.60;99.90;;;;;;4974196;28;20219;-72
2022/03/20 07:54:30;;;;;;;23.63;10.57;;;3.60;99.90;;;;;;4974753;28;20302;-73
2022/03/20 07:56:58;;;;;;;24.63;11.17;;;3.70;99.90;;;;;;4974326;28;20238;-73
2022/03/20 07:59:25;;;;;;;22.13;10.83;;;3.80;99.90;;;;;;4974326;28;20212;-72
2022/03/20 08:01:52;;;;;;;25.10;11.67;;;3.70;99.90;;;;;;4973459;28;20674;-73
2022/03/20 08:04:19;;;;;;;22.37;11.03;;;3.80;99.90;;;;;;4964928;28;20203;-72
2022/03/20 08:06:46;;;;;;;19.37;10.30;;;3.90;99.90;;;;;;4965690;28;20226;-72
2022/03/20 08:09:13;;;;;;;22.77;10.37;;;4.00;99.90;;;;;;4973047;28;20558;-73
2022/03/20 08:11:40;;;;;;;22.10;11.00;;;4.10;99.90;;;;;;4973024;28;20203;-73
2022/03/20 08:14:08;;;;;;;23.80;10.70;;;4.30;99.90;;;;;;4973957;28;20210;-73
2022/03/20 08:16:38;;;;;;;20.37;10.90;;;4.40;99.90;;;;;;4974602;28;20261;-73
2022/03/20 08:19:07;;;;;;;22.50;10.80;;;4.50;99.90;;;;;;4973935;28;20214;-73
2022/03/20 08:21:34;;;;;;;28.63;12.53;;;5.00;99.90;;;;;;4969348;28;20206;-73
2022/03/20 08:24:02;;;;;;;22.87;11.93;;;5.80;99.90;;;;;;4972010;28;20225;-72
2022/03/20 08:26:30;;;;;;;21.03;11.00;;;6.70;99.90;;;;;;4973025;28;20563;-72
2022/03/20 08:28:58;;;;;;;20.70;9.80;;;7.20;99.90;;;;;;4973314;28;20246;-72
2022/03/20 08:31:26;;;;;;;19.67;9.57;;;7.60;99.90;;;;;;4970508;28;20199;-73
2022/03/20 08:33:53;;;;;;;20.43;8.97;;;7.80;99.90;;;;;;4973388;28;20203;-72
2022/03/20 08:36:21;;;;;;;14.87;8.07;;;7.80;99.90;;;;;;4973072;28;20223;-72
2022/03/20 08:38:48;;;;;;;14.80;7.53;;;7.80;99.90;;;;;;4973104;28;20594;-73
2022/03/20 08:41:15;;;;;;;16.93;7.87;;;8.00;99.90;;;;;;4972650;28;20203;-73
2022/03/20 08:43:41;;;;;;;17.07;8.57;;;8.30;99.90;;;;;;4972643;28;20213;-73
2022/03/20 08:46:08;;;;;;;14.83;7.30;;;8.60;99.90;;;;;;4973146;28;20218;-73
2022/03/20 08:48:36;;;;;;;13.83;7.47;;;9.00;99.90;;;;;;4973720;28;20318;-73
2022/03/20 08:51:03;;;;;;;18.03;8.93;;;9.50;99.90;;;;;;4973303;28;20286;-72
2022/03/20 08:53:30;;;;;;;14.13;6.60;;;9.50;99.90;;;;;;4956383;28;20215;-73
2022/03/20 08:55:57;;;;;;;17.43;7.53;;;9.10;99.90;;;;;;4961011;28;20238;-73
2022/03/20 08:58:24;;;;;;;13.73;6.87;;;9.10;99.90;;;;;;4971381;28;20211;-73
2022/03/20 09:00:50;;;;;;;15.27;8.63;;;8.60;99.90;;;;;;4966926;28;20203;-73
2022/03/20 09:03:17;;;;;;;16.77;9.20;;;8.70;99.90;;;;;;4972660;28;20201;-72
2022/03/20 09:05:45;;;;;;;13.67;7.80;;;9.00;99.90;;;;;;4965741;28;20196;-73
2022/03/20 09:08:12;;;;;;;14.43;7.23;;;9.10;99.90;;;;;;4966107;28;20231;-73
2022/03/20 09:10:39;;;;;;;14.77;7.10;;;9.10;99.90;;;;;;4972686;28;20207;-73
2022/03/20 09:13:06;;;;;;;13.07;6.83;;;9.00;99.90;;;;;;4972081;28;20203;-72
2022/03/20 09:15:33;;;;;;;17.70;7.73;;;9.10;99.90;;;;;;4973305;28;20773;-72
2022/03/20 09:20:47;;;;;;;13.67;7.37;;;8.90;99.90;;;;;;4965103;28;20291;-73
2022/03/20 09:23:15;;;;;;;15.37;7.73;;;9.30;99.90;;;;;;4972501;28;20203;-73
2022/03/20 09:25:41;;;;;;;18.07;7.17;;;9.20;99.90;;;;;;4955380;28;20208;-72
2022/03/20 09:28:10;;;;;;;14.87;7.03;;;8.90;99.90;;;;;;4953719;28;20228;-72
2022/03/20 09:30:38;;;;;;;14.53;7.40;;;8.80;99.90;;;;;;4953858;28;20207;-73
2022/03/20 09:33:05;;;;;;;18.30;7.60;;;8.40;99.90;;;;;;4953580;28;20254;-73
2022/03/20 09:35:33;;;;;;;13.10;7.60;;;8.10;99.90;;;;;;4953138;28;20232;-73
2022/03/20 09:38:02;;;;;;;13.97;7.27;;;8.10;99.90;;;;;;4957201;28;20236;-73
2022/03/20 09:40:29;;;;;;;17.03;8.50;;;8.00;99.90;;;;;;4957453;28;20204;-72
2022/03/20 09:42:56;;;;;;;15.73;7.53;;;8.10;99.90;;;;;;4957261;28;20207;-73
2022/03/20 09:45:23;;;;;;;16.07;7.80;;;8.20;99.90;;;;;;4957277;28;20208;-73
2022/03/20 09:47:52;;;;;;;18.83;7.93;;;8.40;99.90;;;;;;4956963;29;20235;-72
2022/03/20 09:50:19;;;;;;;15.60;8.67;;;8.30;99.90;;;;;;4971138;28;20195;-73
2022/03/20 09:52:45;;;;;;;15.00;7.13;;;8.10;99.90;;;;;;4976216;28;20245;-73
2022/03/20 09:55:14;;;;;;;14.90;7.67;;;8.10;99.90;;;;;;4976077;28;20210;-73
2022/03/20 09:57:40;;;;;;;15.40;7.47;;;8.00;99.90;;;;;;4959539;28;20298;-73
2022/03/20 10:00:11;;;;;;;17.23;7.80;;;8.20;99.90;;;;;;4963610;28;20204;-73
2022/03/20 10:02:38;;;;;;;15.80;7.70;;;8.20;99.90;;;;;;4957026;28;20246;-73
2022/03/20 10:05:07;;;;;;;16.37;7.50;;;8.20;99.90;;;;;;4975803;28;20258;-72
2022/03/20 10:07:36;;;;;;;15.20;7.37;;;8.40;99.90;;;;;;4967351;28;20271;-73
2022/03/20 10:10:11;;;;;;;17.33;8.47;;;8.40;99.90;;;;;;4960723;28;20230;-72
2022/03/20 10:12:43;;;;;;;13.57;7.67;;;8.30;99.90;;;;;;4967245;28;20199;-72
2022/03/20 10:15:11;;;;;;;14.53;7.83;;;8.40;99.90;;;;;;4976288;28;20211;-73
2022/03/20 10:17:39;;;;;;;14.83;7.67;;;8.30;99.90;;;;;;4958596;28;20240;-72
2022/03/20 10:20:18;;;;;;;17.90;8.03;;;8.20;99.90;;;;;;4957144;29;20208;-73
2022/03/20 10:22:46;;;;;;;14.23;7.60;;;7.90;99.90;;;;;;4956570;29;20208;-73
2022/03/20 10:25:18;;;;;;;15.80;8.00;;;7.90;99.90;;;;;;4964892;28;20209;-72
2022/03/20 10:27:58;;;;;;;15.60;8.03;;;8.10;99.90;;;;;;4975249;28;20270;-73
2022/03/20 10:30:25;;;;;;;16.40;8.43;;;8.40;99.90;;;;;;4976269;28;20227;-73
2022/03/20 10:32:52;;;;;;;16.07;7.23;;;8.50;99.90;;;;;;4976577;28;20207;-73
2022/03/20 10:35:19;;;;;;;14.73;7.83;;;8.40;99.90;;;;;;4976381;28;20208;-73
2022/03/20 10:37:52;;;;;;;15.47;8.20;;;8.50;99.90;;;;;;4975824;28;20239;-72
2022/03/20 10:40:21;;;;;;;16.33;8.00;;;8.40;99.90;;;;;;4976027;28;20207;-73
2022/03/20 10:43:10;;;;;;;17.57;8.17;;;8.20;99.90;;;;;;4960103;28;20254;-73
2022/03/20 10:46:00;;;;;;;15.73;8.03;;;8.30;99.90;;;;;;4956735;28;20212;-73
2022/03/20 10:48:39;;;;;;;15.10;7.87;;;8.50;99.90;;;;;;4953947;28;20227;-73
2022/03/20 10:51:08;;;;;;;14.77;7.97;;;8.70;99.90;;;;;;4970260;28;20693;-72
2022/03/20 10:53:35;;;;;;;13.50;7.43;;;8.80;99.90;;;;;;4975353;28;20219;-73
2022/03/20 10:56:07;;;;;;;15.43;7.80;;;8.70;99.90;;;;;;4976017;28;20239;-73
2022/03/20 10:58:37;;;;;;;15.47;6.90;;;8.80;99.90;;;;;;4975875;28;20238;-73
2022/03/20 11:01:05;;;;;;;13.50;6.67;;;9.00;99.90;;;;;;4956948;28;20219;-72
2022/03/20 11:03:33;;;;;;;13.13;7.10;;;9.20;99.90;;;;;;4966402;28;20222;-73
2022/03/20 11:06:00;;;;;;;15.27;7.00;;;9.50;99.90;;;;;;4975611;28;20207;-72
2022/03/20 11:08:28;;;;;;;16.90;8.00;;;9.50;99.90;;;;;;4955034;28;20219;-72
2022/03/20 11:10:56;;;;;;;12.13;6.50;;;9.60;99.90;;;;;;4955101;28;20226;-73
2022/03/20 11:13:24;;;;;;;14.30;7.23;;;9.50;99.90;;;;;;4955772;28;20631;-72
2022/03/20 11:15:54;;;;;;;16.07;7.50;;;9.50;99.90;;;;;;4956086;28;20204;-72
2022/03/20 11:18:24;;;;;;;12.27;7.10;;;9.30;99.90;;;;;;4956125;28;20230;-72
2022/03/20 11:20:52;;;;;;;13.63;7.27;;;9.40;99.90;;;;;;4955099;28;20556;-72
2022/03/20 11:23:20;;;;;;;12.87;6.87;;;9.60;99.90;;;;;;4963027;28;20290;-72
2022/03/20 11:25:49;;;;;;;13.33;7.43;;;9.80;99.90;;;;;;4968050;28;20654;-72
2022/03/20 11:28:16;;;;;;;15.10;7.67;;;9.80;99.90;;;;;;4974017;28;20230;-73
2022/03/20 11:30:45;;;;;;;15.37;7.47;;;9.80;99.90;;;;;;4974211;28;20235;-73
2022/03/20 11:33:14;;;;;;;13.40;7.30;;;9.70;99.90;;;;;;4974934;28;20211;-72
2022/03/20 11:35:41;;;;;;;11.13;6.50;;;9.80;99.90;;;;;;4974586;28;20215;-72
2022/03/20 11:38:16;;;;;;;12.23;6.53;;;10.20;99.90;;;;;;4973688;28;20231;-72
2022/03/20 11:41:08;;;;;;;11.83;6.70;;;10.50;99.90;;;;;;4974735;28;20195;-72
2022/03/20 11:43:35;;;;;;;15.27;7.73;;;10.80;99.60;;;;;;4957540;28;20655;-72
2022/03/20 11:46:21;;;;;;;15.30;7.37;;;11.10;98.70;;;;;;4955959;28;20216;-72
2022/03/20 11:49:24;;;;;;;14.80;6.93;;;11.20;99.00;;;;;;4955467;28;20718;-72
2022/03/20 11:52:03;;;;;;;12.60;7.23;;;11.20;98.20;;;;;;4954753;28;20203;-72
2022/03/20 11:54:32;;;;;;;12.63;7.10;;;11.00;99.20;;;;;;4957149;28;20671;-73
2022/03/20 11:57:00;;;;;;;11.57;6.70;;;10.80;98.50;;;;;;4974318;28;20242;-72
2022/03/20 11:59:46;;;;;;;14.33;7.50;;;10.80;98.50;;;;;;4959349;28;20227;-73
2022/03/20 12:02:15;;;;;;;15.57;7.77;;;10.90;99.40;;;;;;4955341;28;20212;-73
2022/03/20 12:04:57;;;;;;;12.83;6.77;;;10.60;98.90;;;;;;4974267;28;20207;-73
2022/03/20 12:07:34;;;;;;;14.20;8.07;;;10.70;99.40;;;;;;4971663;28;20224;-73
2022/03/20 12:10:16;;;;;;;11.97;6.97;;;10.70;99.50;;;;;;4967630;28;20203;-73
2022/03/20 12:13:17;;;;;;;12.87;6.93;;;10.60;99.30;;;;;;4974325;28;20238;-73
2022/03/20 12:15:45;;;;;;;12.13;6.67;;;10.80;98.20;;;;;;4973810;28;20560;-73
2022/03/20 12:18:12;;;;;;;13.13;6.87;;;10.80;98.70;;;;;;4973513;28;20231;-74
2022/03/20 12:21:02;;;;;;;16.10;7.47;;;10.80;98.70;;;;;;4973697;28;20262;-71
2022/03/20 12:23:36;;;;;;;11.83;6.70;;;11.00;98.80;;;;;;4971964;28;20291;-71
2022/03/20 12:26:30;;;;;;;12.77;7.77;;;11.00;98.80;;;;;;4970483;28;20674;-72
2022/03/20 12:29:29;;;;;;;12.63;7.13;;;11.00;98.50;;;;;;4971644;28;20215;-71
2022/03/20 12:31:57;;;;;;;13.33;8.00;;;10.70;98.80;;;;;;4971490;28;20718;-72
2022/03/20 12:34:25;;;;;;;13.67;7.57;;;10.80;98.80;;;;;;4972647;28;20221;-72
2022/03/20 12:36:53;;;;;;;14.33;7.73;;;10.70;98.60;;;;;;4972881;28;20266;-72
2022/03/20 12:39:49;;;;;;;13.40;7.13;;;10.80;99.00;;;;;;4970386;28;20202;-71
2022/03/20 12:42:17;;;;;;;16.40;7.67;;;10.90;98.40;;;;;;4971583;28;20609;-71
2022/03/20 12:44:48;;;;;;;13.67;7.57;;;11.00;98.50;;;;;;4972046;28;20203;-71
2022/03/20 12:47:17;;;;;;;11.43;6.90;;;10.90;98.60;;;;;;4973349;28;20227;-72
2022/03/20 12:49:46;;;;;;;12.20;7.43;;;11.00;98.70;;;;;;4973399;28;20678;-73
2022/03/20 12:52:17;;;;;;;15.67;7.00;;;11.10;98.00;;;;;;4973277;28;20225;-72
2022/03/20 12:54:54;;;;;;;14.10;7.20;;;11.30;98.30;;;;;;4974046;28;20218;-72
2022/03/20 12:57:36;;;;;;;17.27;8.10;;;11.50;97.90;;;;;;4973584;28;20238;-72
2022/03/20 13:00:11;;;;;;;12.53;6.73;;;11.50;97.80;;;;;;4970479;28;20203;-72
2022/03/20 13:02:57;;;;;;;15.43;8.03;;;11.60;97.60;;;;;;4973475;28;20206;-72
2022/03/20 13:05:23;;;;;;;16.53;7.60;;;11.30;97.70;;;;;;4973481;28;20226;-72
2022/03/20 13:07:53;;;;;;;14.93;7.33;;;11.20;98.00;;;;;;4971737;28;20238;-73
2022/03/20 13:10:20;;;;;;;13.87;7.20;;;11.00;98.30;;;;;;4973238;28;20297;-72
2022/03/20 13:12:55;;;;;;;16.10;8.03;;;10.80;98.50;;;;;;4977270;28;20207;-73
2022/03/20 13:15:26;;;;;;;13.77;6.93;;;10.70;98.40;;;;;;4977577;28;20202;-72
2022/03/20 13:17:53;;;;;;;13.20;7.43;;;11.00;98.60;;;;;;4977338;28;20234;-73